Time,TemperatureF,DewpointF,PressureIn,WindDirection,WindDirectionDegrees,WindSpeedMPH,WindSpeedGustMPH,Humidity,HourlyPrecipIn,Conditions,Clouds,dailyrainin,SoftwareType,DateUTC
2013-02-17 00:00:00,32.5,27.9,30.00,NW,317,4.6,4.6,83,0.00,RA,,0.00,WeatherDisplay:10.37,2013-02-17 08:00:00,
2013-02-17 00:05:00,32.5,27.9,30.00,WNW,300,3.5,3.5,83,0.00,RA,,0.00,WeatherDisplay:10.37,2013-02-17 08:05:00,
2013-02-17 00:10:00,32.4,27.8,30.00,WNW,301,3.5,3.5,83,0.00,OVC,,0.00,WeatherDisplay:10.37,2013-02-17 08:10:00,
2013-02-17 00:15:00,32.4,27.8,30.01,WNW,284,4.6,4.6,83,0.00,OVC,,0.00,WeatherDisplay:10.37,2013-02-17 08:15:00,
2013-02-17 00:20:00,32.3,28.0,30.01,West,280,12.7,12.7,84,0.00,OVC,,0.00,WeatherDisplay:10.37,2013-02-17 08:20:00,
2013-02-17 00:25:00,32.0,28.0,30.01,West,279,12.7,12.7,85,0.00,OVC,,0.00,WeatherDisplay:10.37,2013-02-17 08:25:00,
2013-02-17 00:30:00,31.6,27.9,30.01,WNW,292,11.5,11.5,86,0.00,OVC,,0.00,WeatherDisplay:10.37,2013-02-17 08:30:00,
2013-02-17 00:35:00,31.1,28.0,30.02,West,275,17.3,17.3,88,0.00,OVC,,0.00,WeatherDisplay:10.37,2013-02-17 08:35:00,
2013-02-17 00:40:00,30.9,28.3,30.02,West,275,13.0,13.0,90,0.00,OVC,,0.00,WeatherDisplay:10.37,2013-02-17 08:40:00,
2013-02-17 00:46:00,30.8,28.2,30.02,West,275,12.7,12.7,90,0.00,OVC,,0.00,WeatherDisplay:10.37,2013-02-17 08:46:00,
2013-02-17 00:51:00,30.9,28.3,30.02,West,275,11.5,11.5,90,0.00,OVC,,0.00,WeatherDisplay:10.37,2013-02-17 08:51:00,
2013-02-17 00:56:00,30.8,28.2,30.02,West,275,11.5,11.5,90,0.00,OVC,,0.00,WeatherDisplay:10.37,2013-02-17 08:56:00,
2013-02-17 01:01:00,30.9,28.3,30.01,West,275,12.7,12.7,90,0.00,OVC,,0.00,WeatherDisplay:10.37,2013-02-17 09:01:00,
2013-02-17 01:06:00,31.0,28.1,30.01,West,275,15.0,15.0,89,0.00,BKN,,0.00,WeatherDisplay:10.37,2013-02-17 09:06:00,
2013-02-17 01:11:00,31.2,28.1,30.01,West,275,5.8,5.8,88,0.00,BKN,,0.00,WeatherDisplay:10.37,2013-02-17 09:11:00,
2013-02-17 01:16:00,31.4,27.7,30.01,West,275,4.6,4.6,86,0.00,BKN,,0.00,WeatherDisplay:10.37,2013-02-17 09:16:00,
2013-02-17 01:21:00,31.4,27.7,30.01,West,275,6.9,6.9,86,0.00,BKN,,0.00,WeatherDisplay:10.37,2013-02-17 09:21:00,
2013-02-17 01:26:00,31.4,27.4,30.01,West,275,5.8,5.8,85,0.00,BKN,,0.00,WeatherDisplay:10.37,2013-02-17 09:26:00,
2013-02-17 01:31:00,31.4,27.4,30.01,West,275,8.1,8.1,85,0.00,BKN,,0.00,WeatherDisplay:10.37,2013-02-17 09:31:00,
2013-02-17 01:36:00,31.4,27.1,30.01,West,275,5.8,5.8,84,0.00,BKN,,0.00,WeatherDisplay:10.37,2013-02-17 09:36:00,
2013-02-17 01:41:00,31.6,27.0,30.01,West,275,6.9,6.9,83,0.00,BKN,,0.00,WeatherDisplay:10.37,2013-02-17 09:41:00,
2013-02-17 01:46:00,31.6,27.3,30.01,West,275,4.6,4.6,84,0.00,BKN,,0.00,WeatherDisplay:10.37,2013-02-17 09:46:00,
2013-02-17 01:51:00,31.6,27.0,30.01,West,275,11.5,11.5,83,0.00,BKN,,0.00,WeatherDisplay:10.37,2013-02-17 09:51:00,
2013-02-17 01:56:00,31.6,27.0,30.02,West,275,6.9,6.9,83,0.00,BKN,,0.00,WeatherDisplay:10.37,2013-02-17 09:56:00,
2013-02-17 02:01:00,31.7,27.1,30.02,West,275,4.6,4.6,83,0.00,OVC,,0.00,WeatherDisplay:10.37,2013-02-17 10:01:00,
2013-02-17 02:06:00,31.6,27.3,30.02,West,275,3.5,3.5,84,0.00,OVC,,0.00,WeatherDisplay:10.37,2013-02-17 10:06:00,
2013-02-17 02:11:00,31.4,27.1,30.02,West,275,4.6,4.6,84,0.00,OVC,,0.00,WeatherDisplay:10.37,2013-02-17 10:11:00,
2013-02-17 02:16:00,31.2,26.9,30.02,West,275,5.8,5.8,84,0.00,OVC,,0.00,WeatherDisplay:10.37,2013-02-17 10:16:00,
2013-02-17 02:21:00,31.1,26.8,30.02,West,275,8.0,8.0,84,0.00,OVC,,0.00,WeatherDisplay:10.37,2013-02-17 10:21:00,
2013-02-17 02:26:00,31.1,26.8,30.02,West,275,5.8,5.8,84,0.00,OVC,,0.00,WeatherDisplay:10.37,2013-02-17 10:26:00,
2013-02-17 02:31:00,31.1,26.8,30.02,West,275,6.9,6.9,84,0.00,OVC,,0.00,WeatherDisplay:10.37,2013-02-17 10:31:00,
2013-02-17 02:36:00,31.0,27.0,30.02,West,275,10.4,10.4,85,0.00,OVC,,0.00,WeatherDisplay:10.37,2013-02-17 10:36:00,
2013-02-17 02:41:00,31.0,26.7,30.02,West,275,11.5,11.5,84,0.00,OVC,,0.00,WeatherDisplay:10.37,2013-02-17 10:41:00,
2013-02-17 02:46:00,31.0,26.7,30.02,West,275,9.0,9.0,84,0.00,OVC,,0.00,WeatherDisplay:10.37,2013-02-17 10:46:00,
2013-02-17 02:51:00,31.0,26.7,30.02,West,275,14.0,14.0,84,0.00,OVC,,0.00,WeatherDisplay:10.37,2013-02-17 10:51:00,
2013-02-17 02:56:00,31.0,26.7,30.02,West,275,4.6,4.6,84,0.00,OVC,,0.00,WeatherDisplay:10.37,2013-02-17 10:56:00,
2013-02-17 03:01:00,30.9,26.6,30.05,West,275,3.5,3.5,84,0.00,FEW,,0.00,WeatherDisplay:10.37,2013-02-17 11:01:00,
2013-02-17 03:06:00,30.8,26.5,30.05,West,275,5.0,5.0,84,0.00,FEW,,0.00,WeatherDisplay:10.37,2013-02-17 11:06:00,
2013-02-17 03:11:00,30.8,26.5,30.05,West,275,3.5,3.5,84,0.00,FEW,,0.00,WeatherDisplay:10.37,2013-02-17 11:11:00,
2013-02-17 03:16:00,30.7,26.4,30.05,West,275,3.5,3.5,84,0.00,FEW,,0.00,WeatherDisplay:10.37,2013-02-17 11:16:00,
2013-02-17 03:21:00,30.7,26.4,30.05,West,275,3.5,3.5,84,0.00,FEW,,0.00,WeatherDisplay:10.37,2013-02-17 11:21:00,
2013-02-17 03:26:00,30.6,26.3,30.05,West,275,3.5,3.5,84,0.00,FEW,,0.00,WeatherDisplay:10.37,2013-02-17 11:26:00,
2013-02-17 03:31:00,30.6,26.3,30.05,West,275,5.0,5.0,84,0.00,FEW,,0.00,WeatherDisplay:10.37,2013-02-17 11:31:00,
2013-02-17 03:36:00,30.6,26.3,30.05,West,275,3.5,3.5,84,0.00,FEW,,0.00,WeatherDisplay:10.37,2013-02-17 11:36:00,
2013-02-17 03:41:00,30.5,26.2,30.05,West,275,4.6,4.6,84,0.00,FEW,,0.00,WeatherDisplay:10.37,2013-02-17 11:41:00,
2013-02-17 03:46:00,30.4,26.1,30.05,West,275,6.0,6.0,84,0.00,FEW,,0.00,WeatherDisplay:10.37,2013-02-17 11:46:00,
2013-02-17 03:51:00,30.5,26.2,30.05,West,275,12.7,12.7,84,0.00,FEW,,0.00,WeatherDisplay:10.37,2013-02-17 11:51:00,
2013-02-17 03:56:00,30.5,26.2,30.04,West,275,11.5,11.5,84,0.00,FEW,,0.00,WeatherDisplay:10.37,2013-02-17 11:56:00,
2013-02-17 04:01:00,30.5,26.5,30.05,West,275,11.5,11.5,85,0.00,BKN,,0.00,WeatherDisplay:10.37,2013-02-17 12:01:00,
2013-02-17 04:06:00,30.6,26.3,30.06,West,275,11.5,11.5,84,0.00,BKN,,0.00,WeatherDisplay:10.37,2013-02-17 12:06:00,
2013-02-17 04:11:00,30.8,26.5,30.06,West,275,13.8,13.8,84,0.00,BKN,,0.00,WeatherDisplay:10.37,2013-02-17 12:11:00,
2013-02-17 04:16:00,31.0,26.7,30.06,West,275,12.7,12.7,84,0.00,BKN,,0.00,WeatherDisplay:10.37,2013-02-17 12:16:00,
2013-02-17 04:21:00,31.0,26.7,30.06,West,275,9.0,9.0,84,0.00,BKN,,0.00,WeatherDisplay:10.37,2013-02-17 12:21:00,
2013-02-17 04:26:00,30.9,26.3,30.06,West,275,12.7,12.7,83,0.00,BKN,,0.00,WeatherDisplay:10.37,2013-02-17 12:26:00,
2013-02-17 04:31:00,30.9,26.6,30.06,West,275,6.0,6.0,84,0.00,BKN,,0.00,WeatherDisplay:10.37,2013-02-17 12:31:00,
2013-02-17 04:36:00,30.9,26.3,30.06,West,275,10.4,10.4,83,0.00,BKN,,0.00,WeatherDisplay:10.37,2013-02-17 12:36:00,
2013-02-17 04:41:00,31.0,26.1,30.06,West,275,11.5,11.5,82,0.00,BKN,,0.00,WeatherDisplay:10.37,2013-02-17 12:41:00,
2013-02-17 04:46:00,31.0,25.9,30.06,West,275,11.5,11.5,81,0.00,BKN,,0.00,WeatherDisplay:10.37,2013-02-17 12:46:00,
2013-02-17 04:51:00,31.0,25.9,30.07,West,275,11.5,11.5,81,0.00,BKN,,0.00,WeatherDisplay:10.37,2013-02-17 12:51:00,
2013-02-17 04:56:00,31.0,25.9,30.06,West,275,6.9,6.9,81,0.00,BKN,,0.00,WeatherDisplay:10.37,2013-02-17 12:56:00,
2013-02-17 05:01:00,31.0,25.6,30.06,West,275,20.7,20.7,80,0.00,OVC,,0.00,WeatherDisplay:10.37,2013-02-17 13:01:00,
2013-02-17 05:06:00,31.1,25.7,30.06,West,275,9.2,9.2,80,0.00,OVC,,0.00,WeatherDisplay:10.37,2013-02-17 13:06:00,
2013-02-17 05:11:00,31.1,25.3,30.06,West,275,16.0,16.0,79,0.00,OVC,,0.00,WeatherDisplay:10.37,2013-02-17 13:11:00,
2013-02-17 05:16:00,31.1,25.7,30.07,West,275,5.8,5.8,80,0.00,OVC,,0.00,WeatherDisplay:10.37,2013-02-17 13:16:00,
2013-02-17 05:22:00,31.0,25.9,30.07,West,275,6.0,6.0,81,0.00,OVC,,0.00,WeatherDisplay:10.37,2013-02-17 13:22:00,
2013-02-17 05:27:00,30.9,26.1,30.07,West,275,5.0,5.0,82,0.00,OVC,,0.00,WeatherDisplay:10.37,2013-02-17 13:27:00,
2013-02-17 05:32:00,30.7,25.9,30.07,West,275,4.6,4.6,82,0.00,OVC,,0.00,WeatherDisplay:10.37,2013-02-17 13:32:00,
2013-02-17 05:37:00,30.6,25.8,30.07,West,275,3.5,3.5,82,0.00,OVC,,0.00,WeatherDisplay:10.37,2013-02-17 13:37:00,
2013-02-17 05:42:00,30.6,25.8,30.07,West,275,4.6,4.6,82,0.00,OVC,,0.00,WeatherDisplay:10.37,2013-02-17 13:42:00,
2013-02-17 05:47:00,30.6,25.8,30.07,West,275,3.5,3.5,82,0.00,OVC,,0.00,WeatherDisplay:10.37,2013-02-17 13:47:00,
2013-02-17 05:52:00,30.5,25.7,30.07,West,275,3.5,3.5,82,0.00,OVC,,0.00,WeatherDisplay:10.37,2013-02-17 13:52:00,
2013-02-17 05:57:00,30.4,25.6,30.08,West,275,3.5,3.5,82,0.00,OVC,,0.00,WeatherDisplay:10.37,2013-02-17 13:57:00,
2013-02-17 06:02:00,30.4,25.6,30.07,West,275,4.6,4.6,82,0.00,OVC,,0.00,WeatherDisplay:10.37,2013-02-17 14:02:00,
2013-02-17 06:07:00,30.4,25.6,30.07,West,275,4.6,4.6,82,0.00,OVC,,0.00,WeatherDisplay:10.37,2013-02-17 14:07:00,
2013-02-17 06:12:00,30.4,25.6,30.08,West,275,8.1,8.1,82,0.00,OVC,,0.00,WeatherDisplay:10.37,2013-02-17 14:12:00,
2013-02-17 06:17:00,30.5,25.4,30.07,West,275,4.6,4.6,81,0.00,OVC,,0.00,WeatherDisplay:10.37,2013-02-17 14:17:00,
2013-02-17 06:22:00,30.5,25.4,30.08,West,275,4.6,4.6,81,0.00,OVC,,0.00,WeatherDisplay:10.37,2013-02-17 14:22:00,
2013-02-17 06:27:00,30.4,25.6,30.08,West,275,4.6,4.6,82,0.00,OVC,,0.00,WeatherDisplay:10.37,2013-02-17 14:27:00,
2013-02-17 06:32:00,30.3,25.5,30.07,West,275,9.2,9.2,82,0.00,OVC,,0.00,WeatherDisplay:10.37,2013-02-17 14:32:00,
2013-02-17 06:37:00,30.3,25.5,30.07,West,275,7.0,7.0,82,0.00,OVC,,0.00,WeatherDisplay:10.37,2013-02-17 14:37:00,
2013-02-17 06:42:00,30.3,25.8,30.07,West,275,5.0,5.0,83,0.00,OVC,,0.00,WeatherDisplay:10.37,2013-02-17 14:42:00,
2013-02-17 06:47:00,30.1,25.8,30.07,West,275,6.0,6.0,84,0.00,OVC,,0.00,WeatherDisplay:10.37,2013-02-17 14:47:00,
2013-02-17 06:52:00,29.8,25.8,30.07,West,275,4.6,4.6,85,0.00,OVC,,0.00,WeatherDisplay:10.37,2013-02-17 14:52:00,
2013-02-17 06:57:00,29.7,25.7,30.07,West,275,6.0,6.0,85,0.00,OVC,,0.00,WeatherDisplay:10.37,2013-02-17 14:57:00,
2013-02-17 07:02:00,29.7,25.5,30.08,West,275,6.0,6.0,84,0.00,OVC,,0.00,WeatherDisplay:10.37,2013-02-17 15:02:00,
2013-02-17 07:07:00,29.8,25.6,30.08,West,275,10.4,10.4,84,0.00,OVC,,0.00,WeatherDisplay:10.37,2013-02-17 15:07:00,
2013-02-17 07:12:00,29.7,25.5,30.08,West,275,10.4,10.4,84,0.00,OVC,,0.00,WeatherDisplay:10.37,2013-02-17 15:12:00,
2013-02-17 07:17:00,29.8,25.6,30.09,West,276,15.0,15.0,84,0.00,OVC,,0.00,WeatherDisplay:10.37,2013-02-17 15:17:00,
2013-02-17 07:22:00,29.9,25.4,30.09,West,276,18.4,18.4,83,0.00,OVC,,0.00,WeatherDisplay:10.37,2013-02-17 15:22:00,
2013-02-17 07:27:00,30.2,25.1,30.09,West,276,21.9,21.9,81,0.00,OVC,,0.00,WeatherDisplay:10.37,2013-02-17 15:27:00,
2013-02-17 07:32:00,30.5,25.4,30.09,West,276,11.5,11.5,81,0.00,OVC,,0.00,WeatherDisplay:10.37,2013-02-17 15:32:00,
2013-02-17 07:37:00,30.7,25.0,30.09,West,276,17.3,17.3,79,0.00,OVC,,0.00,WeatherDisplay:10.37,2013-02-17 15:37:00,
2013-02-17 07:42:00,30.9,25.2,30.09,West,276,18.4,18.4,79,0.00,OVC,,0.00,WeatherDisplay:10.37,2013-02-17 15:42:00,
2013-02-17 07:47:00,31.0,24.9,30.09,West,277,13.8,13.8,78,0.00,OVC,,0.00,WeatherDisplay:10.37,2013-02-17 15:47:00,
2013-02-17 07:52:00,31.2,25.1,30.10,West,275,15.0,15.0,78,0.00,OVC,,0.00,WeatherDisplay:10.37,2013-02-17 15:52:00,
2013-02-17 07:57:00,31.4,25.3,30.10,West,280,11.0,11.0,78,0.00,OVC,,0.00,WeatherDisplay:10.37,2013-02-17 15:57:00,
2013-02-17 08:02:00,31.3,24.9,30.10,West,277,17.3,17.3,77,0.00,BKN,,0.00,WeatherDisplay:10.37,2013-02-17 16:02:00,
2013-02-17 08:07:00,31.3,24.9,30.10,WNW,287,11.5,11.5,77,0.00,BKN,,0.00,WeatherDisplay:10.37,2013-02-17 16:07:00,
2013-02-17 08:12:00,31.3,24.9,30.10,WNW,286,11.0,11.0,77,0.00,BKN,,0.00,WeatherDisplay:10.37,2013-02-17 16:12:00,
2013-02-17 08:17:00,31.4,25.0,30.10,WNW,286,11.5,11.5,77,0.00,BKN,,0.00,WeatherDisplay:10.37,2013-02-17 16:17:00,
2013-02-17 08:22:00,31.4,24.7,30.11,WNW,284,13.8,13.8,76,0.00,BKN,,0.00,WeatherDisplay:10.37,2013-02-17 16:22:00,
2013-02-17 08:27:00,31.5,25.1,30.11,WNW,288,11.0,11.0,77,0.00,BKN,,0.00,WeatherDisplay:10.37,2013-02-17 16:27:00,
2013-02-17 08:32:00,31.7,25.0,30.11,WNW,286,18.4,18.4,76,0.00,BKN,,0.00,WeatherDisplay:10.37,2013-02-17 16:32:00,
2013-02-17 08:37:00,31.7,25.0,30.11,WNW,294,12.7,12.7,76,0.00,BKN,,0.00,WeatherDisplay:10.37,2013-02-17 16:37:00,
2013-02-17 08:42:00,31.8,25.1,30.11,WNW,284,15.0,15.0,76,0.00,BKN,,0.00,WeatherDisplay:10.37,2013-02-17 16:42:00,
2013-02-17 08:47:00,31.7,25.0,30.11,West,279,16.1,16.1,76,0.00,BKN,,0.00,WeatherDisplay:10.37,2013-02-17 16:47:00,
2013-02-17 08:52:00,31.8,25.1,30.11,WNW,299,12.7,12.7,76,0.00,BKN,,0.00,WeatherDisplay:10.37,2013-02-17 16:52:00,
2013-02-17 08:57:00,31.8,25.1,30.11,WNW,284,12.7,12.7,76,0.00,BKN,,0.00,WeatherDisplay:10.37,2013-02-17 16:57:00,
2013-02-17 09:02:00,31.8,24.8,30.11,WNW,282,20.7,20.7,75,0.00,BKN,,0.00,WeatherDisplay:10.37,2013-02-17 17:02:00,
2013-02-17 09:07:00,31.8,25.1,30.11,WNW,286,16.1,16.1,76,0.00,BKN,,0.00,WeatherDisplay:10.37,2013-02-17 17:07:00,
2013-02-17 09:12:00,31.8,25.1,30.11,West,280,12.7,12.7,76,0.00,BKN,,0.00,WeatherDisplay:10.37,2013-02-17 17:12:00,
2013-02-17 09:17:00,31.9,25.5,30.11,WNW,294,11.5,11.5,77,0.00,BKN,,0.00,WeatherDisplay:10.37,2013-02-17 17:17:00,
2013-02-17 09:22:00,32.1,25.7,30.11,WNW,289,8.1,8.1,77,0.00,BKN,,0.00,WeatherDisplay:10.37,2013-02-17 17:22:00,
2013-02-17 09:27:00,32.4,26.0,30.11,West,280,6.0,6.0,77,0.00,BKN,,0.00,WeatherDisplay:10.37,2013-02-17 17:27:00,
2013-02-17 09:32:00,32.6,26.2,30.11,WNW,290,4.6,4.6,77,0.00,BKN,,0.00,WeatherDisplay:10.37,2013-02-17 17:32:00,
2013-02-17 09:37:00,33.0,26.3,30.12,WNW,296,6.0,6.3,76,0.00,BKN,,0.00,WeatherDisplay:10.37,2013-02-17 17:37:00,
2013-02-17 09:42:00,33.2,26.5,30.12,WNW,292,6.0,6.0,76,0.00,BKN,,0.00,WeatherDisplay:10.37,2013-02-17 17:42:00,
2013-02-17 09:47:00,33.3,26.2,30.12,WNW,292,9.2,9.2,75,0.00,BKN,,0.00,WeatherDisplay:10.37,2013-02-17 17:47:00,
2013-02-17 09:52:00,33.3,26.2,30.12,WNW,282,7.0,7.0,75,0.00,BKN,,0.00,WeatherDisplay:10.37,2013-02-17 17:52:00,
2013-02-17 09:57:00,33.4,26.6,30.12,WNW,284,5.8,5.8,76,0.00,BKN,,0.00,WeatherDisplay:10.37,2013-02-17 17:57:00,
2013-02-17 10:02:00,33.5,26.4,30.12,WNW,288,3.5,3.5,75,0.00,SCT,,0.00,WeatherDisplay:10.37,2013-02-17 18:02:00,
2013-02-17 10:07:00,34.2,27.7,30.12,WNW,287,3.5,3.5,77,0.00,SCT,,0.00,WeatherDisplay:10.37,2013-02-17 18:07:00,
2013-02-17 10:12:00,34.4,27.0,30.13,West,281,4.6,4.6,74,0.00,SCT,,0.00,WeatherDisplay:10.37,2013-02-17 18:12:00,
2013-02-17 10:17:00,34.3,27.2,30.13,WNW,286,3.5,3.5,75,0.00,SCT,,0.00,WeatherDisplay:10.37,2013-02-17 18:17:00,
2013-02-17 10:22:00,33.9,27.1,30.13,NW,304,3.5,3.5,76,0.00,SCT,,0.00,WeatherDisplay:10.37,2013-02-17 18:22:00,
2013-02-17 10:27:00,34.3,27.8,30.13,WNW,284,5.0,5.0,77,0.01,RA,,0.01,WeatherDisplay:10.37,2013-02-17 18:27:00,
2013-02-17 10:32:00,34.4,27.6,30.13,WNW,288,2.3,2.3,76,0.01,RA,,0.01,WeatherDisplay:10.37,2013-02-17 18:32:00,
2013-02-17 10:37:00,35.5,29.3,30.12,NNW,337,2.3,2.3,78,0.01,SCT,,0.01,WeatherDisplay:10.37,2013-02-17 18:37:00,
2013-02-17 10:42:00,36.2,28.0,30.12,West,279,11.5,11.5,72,0.01,SCT,,0.01,WeatherDisplay:10.37,2013-02-17 18:42:00,
2013-02-17 10:47:00,35.9,27.4,30.13,West,277,7.0,7.0,71,0.01,SCT,,0.01,WeatherDisplay:10.37,2013-02-17 18:47:00,
2013-02-17 10:53:00,35.4,27.6,30.13,NW,318,5.8,5.8,73,0.01,SCT,,0.01,WeatherDisplay:10.37,2013-02-17 18:53:00,
2013-02-17 10:58:00,35.5,27.0,30.13,WNW,290,5.8,5.8,71,0.01,SCT,,0.01,WeatherDisplay:10.37,2013-02-17 18:58:00,
2013-02-17 11:03:00,35.7,27.6,30.13,NW,319,4.6,4.6,72,0.01,CLR,,0.01,WeatherDisplay:10.37,2013-02-17 19:03:00,
2013-02-17 11:08:00,36.0,27.8,30.13,NW,304,6.9,6.9,72,0.01,CLR,,0.01,WeatherDisplay:10.37,2013-02-17 19:08:00,
2013-02-17 11:13:00,36.3,27.4,30.13,NW,305,6.9,6.9,70,0.01,CLR,,0.01,WeatherDisplay:10.37,2013-02-17 19:13:00,
2013-02-17 11:18:00,36.1,27.6,30.13,NW,320,6.0,6.0,71,0.01,CLR,,0.01,WeatherDisplay:10.37,2013-02-17 19:18:00,
2013-02-17 11:23:00,36.1,27.9,30.13,NW,306,4.6,4.6,72,0.01,CLR,,0.01,WeatherDisplay:10.37,2013-02-17 19:23:00,
2013-02-17 11:28:00,36.2,27.7,30.13,NW,315,5.8,5.8,71,0.00,CLR,,0.01,WeatherDisplay:10.37,2013-02-17 19:28:00,
2013-02-17 11:33:00,36.1,27.3,30.13,NW,310,4.0,4.0,70,0.00,CLR,,0.01,WeatherDisplay:10.37,2013-02-17 19:33:00,
2013-02-17 11:38:00,36.2,27.4,30.13,NW,304,3.5,3.5,70,0.00,CLR,,0.01,WeatherDisplay:10.37,2013-02-17 19:38:00,
2013-02-17 11:43:00,35.7,26.5,30.13,WNW,288,3.5,3.5,69,0.00,CLR,,0.01,WeatherDisplay:10.37,2013-02-17 19:43:00,
2013-02-17 11:48:00,35.3,26.5,30.13,WNW,289,4.6,4.6,70,0.00,CLR,,0.01,WeatherDisplay:10.37,2013-02-17 19:48:00,
2013-02-17 11:53:00,35.1,26.6,30.13,NW,314,3.5,3.5,71,0.00,CLR,,0.01,WeatherDisplay:10.37,2013-02-17 19:53:00,
2013-02-17 11:58:00,35.2,26.7,30.13,NNW,334,3.5,3.5,71,0.00,CLR,,0.01,WeatherDisplay:10.37,2013-02-17 19:58:00,
2013-02-17 12:03:00,35.3,27.5,30.14,North,360,5.8,5.8,73,0.00,FEW,,0.01,WeatherDisplay:10.37,2013-02-17 20:03:00,
2013-02-17 12:08:00,35.4,27.9,30.14,NNW,329,3.5,3.5,74,0.00,FEW,,0.01,WeatherDisplay:10.37,2013-02-17 20:08:00,
2013-02-17 12:13:00,35.4,27.6,30.14,NNW,338,3.5,3.5,73,0.00,FEW,,0.01,WeatherDisplay:10.37,2013-02-17 20:13:00,
2013-02-17 12:18:00,35.4,27.6,30.14,NNW,329,9.2,9.2,73,0.00,FEW,,0.01,WeatherDisplay:10.37,2013-02-17 20:18:00,
2013-02-17 12:23:00,35.3,27.8,30.14,NNW,334,4.6,4.6,74,0.00,FEW,,0.01,WeatherDisplay:10.37,2013-02-17 20:23:00,
2013-02-17 12:28:00,35.1,27.3,30.14,NW,325,5.0,5.0,73,0.00,FEW,,0.01,WeatherDisplay:10.37,2013-02-17 20:28:00,
2013-02-17 12:33:00,35.1,27.6,30.14,NNE,13,4.0,4.0,74,0.00,FEW,,0.01,WeatherDisplay:10.37,2013-02-17 20:33:00,
2013-02-17 12:38:00,35.2,27.7,30.14,North,360,4.6,4.6,74,0.00,FEW,,0.01,WeatherDisplay:10.37,2013-02-17 20:38:00,
2013-02-17 12:43:00,35.4,27.9,30.14,NW,324,4.6,4.6,74,0.00,FEW,,0.01,WeatherDisplay:10.37,2013-02-17 20:43:00,
2013-02-17 12:48:00,35.7,27.9,30.14,NNW,332,3.5,3.5,73,0.00,FEW,,0.01,WeatherDisplay:10.37,2013-02-17 20:48:00,
2013-02-17 12:53:00,36.0,28.5,30.14,NW,325,3.5,3.5,74,0.00,FEW,,0.01,WeatherDisplay:10.37,2013-02-17 20:53:00,
2013-02-17 12:58:00,36.0,28.2,30.14,NNW,333,2.3,2.3,73,0.00,FEW,,0.01,WeatherDisplay:10.37,2013-02-17 20:58:00,
2013-02-17 13:03:00,36.0,28.2,30.13,North,349,3.5,3.5,73,0.00,FEW,,0.01,WeatherDisplay:10.37,2013-02-17 21:03:00,
2013-02-17 13:08:00,36.0,28.5,30.13,NW,323,4.6,4.6,74,0.00,FEW,,0.01,WeatherDisplay:10.37,2013-02-17 21:08:00,
2013-02-17 13:13:00,36.0,27.8,30.13,WNW,302,10.4,10.4,72,0.00,FEW,,0.01,WeatherDisplay:10.37,2013-02-17 21:13:00,
2013-02-17 13:18:00,35.7,26.9,30.13,NW,308,5.8,5.8,70,0.00,FEW,,0.01,WeatherDisplay:10.37,2013-02-17 21:18:00,
2013-02-17 13:23:00,35.5,27.4,30.13,NW,318,3.5,3.5,72,0.00,FEW,,0.01,WeatherDisplay:10.37,2013-02-17 21:23:00,
2013-02-17 13:28:00,35.5,27.7,30.13,NNE,16,9.2,9.2,73,0.00,FEW,,0.01,WeatherDisplay:10.37,2013-02-17 21:28:00,
2013-02-17 13:33:00,35.4,27.3,30.14,NW,308,6.9,6.9,72,0.00,FEW,,0.01,WeatherDisplay:10.37,2013-02-17 21:33:00,
2013-02-17 13:38:00,35.5,27.4,30.13,NW,316,3.5,3.5,72,0.00,FEW,,0.01,WeatherDisplay:10.37,2013-02-17 21:38:00,
2013-02-17 13:43:00,35.7,27.9,30.13,NW,319,3.5,3.5,73,0.00,FEW,,0.01,WeatherDisplay:10.37,2013-02-17 21:43:00,
2013-02-17 13:48:00,35.8,27.3,30.12,NNW,333,6.0,6.0,71,0.00,FEW,,0.01,WeatherDisplay:10.37,2013-02-17 21:48:00,
2013-02-17 13:54:00,35.7,27.6,30.12,North,355,3.5,3.5,72,0.00,FEW,,0.01,WeatherDisplay:10.37,2013-02-17 21:54:00,
2013-02-17 13:59:00,35.7,27.2,30.13,NW,315,3.5,3.5,71,0.00,FEW,,0.01,WeatherDisplay:10.37,2013-02-17 21:59:00,
2013-02-17 14:04:00,35.7,27.6,30.13,NW,309,3.5,3.5,72,0.00,OVC,,0.01,WeatherDisplay:10.37,2013-02-17 22:04:00,
2013-02-17 14:09:00,36.2,28.7,30.13,NNW,329,4.6,4.6,74,0.00,OVC,,0.01,WeatherDisplay:10.37,2013-02-17 22:09:00,
2013-02-17 14:14:00,37.0,28.5,30.12,NNW,336,4.6,4.6,71,0.00,OVC,,0.01,WeatherDisplay:10.37,2013-02-17 22:14:00,
2013-02-17 14:19:00,37.5,28.2,30.12,North,355,3.5,3.5,69,0.00,OVC,,0.01,WeatherDisplay:10.37,2013-02-17 22:19:00,
2013-02-17 14:24:00,38.0,29.4,30.12,NNW,340,3.5,3.5,71,0.00,OVC,,0.01,WeatherDisplay:10.37,2013-02-17 22:24:00,
2013-02-17 14:29:00,38.1,28.1,30.13,NNW,341,4.0,4.0,67,0.00,OVC,,0.01,WeatherDisplay:10.37,2013-02-17 22:29:00,
2013-02-17 14:34:00,37.5,27.5,30.12,NNW,341,4.6,4.6,67,0.00,OVC,,0.01,WeatherDisplay:10.37,2013-02-17 22:34:00,
2013-02-17 14:39:00,37.1,27.5,30.12,NNW,332,9.2,9.2,68,0.00,OVC,,0.01,WeatherDisplay:10.37,2013-02-17 22:39:00,
2013-02-17 14:44:00,37.0,27.8,30.13,West,271,3.5,3.5,69,0.00,OVC,,0.01,WeatherDisplay:10.37,2013-02-17 22:44:00,
2013-02-17 14:49:00,37.0,27.8,30.13,NW,317,3.5,3.5,69,0.00,OVC,,0.01,WeatherDisplay:10.37,2013-02-17 22:49:00,
2013-02-17 14:54:00,37.0,27.4,30.13,NW,323,3.5,3.5,68,0.00,OVC,,0.01,WeatherDisplay:10.37,2013-02-17 22:54:00,
2013-02-17 14:59:00,37.0,27.4,30.13,NNW,329,2.3,2.3,68,0.00,OVC,,0.01,WeatherDisplay:10.37,2013-02-17 22:59:00,
2013-02-17 15:04:00,36.8,27.2,30.13,North,360,3.5,3.5,68,0.00,SCT,,0.01,WeatherDisplay:10.37,2013-02-17 23:04:00,
2013-02-17 15:09:00,36.7,27.1,30.13,NW,309,8.1,8.1,68,0.00,SCT,,0.01,WeatherDisplay:10.37,2013-02-17 23:09:00,
2013-02-17 15:14:00,36.6,27.4,30.13,NNW,334,3.5,3.5,69,0.00,SCT,,0.01,WeatherDisplay:10.37,2013-02-17 23:14:00,
2013-02-17 15:19:00,36.4,26.8,30.14,NW,319,2.3,2.3,68,0.00,SCT,,0.01,WeatherDisplay:10.37,2013-02-17 23:19:00,
2013-02-17 15:24:00,36.2,27.0,30.14,NW,317,3.5,3.5,69,0.00,SCT,,0.01,WeatherDisplay:10.37,2013-02-17 23:24:00,
2013-02-17 15:29:00,36.1,26.9,30.14,NNW,336,3.5,3.5,69,0.00,SCT,,0.01,WeatherDisplay:10.37,2013-02-17 23:29:00,
2013-02-17 15:34:00,36.1,26.6,30.14,NW,317,4.6,4.6,68,0.00,SCT,,0.01,WeatherDisplay:10.37,2013-02-17 23:34:00,
2013-02-17 15:39:00,36.0,26.5,30.14,NW,324,5.0,5.0,68,0.00,SCT,,0.01,WeatherDisplay:10.37,2013-02-17 23:39:00,
2013-02-17 15:44:00,35.8,26.3,30.15,NW,313,4.6,4.6,68,0.00,SCT,,0.01,WeatherDisplay:10.37,2013-02-17 23:44:00,
2013-02-17 15:49:00,35.7,26.5,30.14,NW,318,3.5,3.5,69,0.00,SCT,,0.01,WeatherDisplay:10.37,2013-02-17 23:49:00,
2013-02-17 15:54:00,35.6,26.8,30.14,NNW,333,2.3,2.3,70,0.00,SCT,,0.01,WeatherDisplay:10.37,2013-02-17 23:54:00,
2013-02-17 15:59:00,35.5,26.7,30.14,NNW,330,2.3,0.0,70,0.00,SCT,,0.01,WeatherDisplay:10.37,2013-02-17 23:59:00,
2013-02-17 16:04:00,35.5,26.7,30.14,NW,309,5.0,5.0,70,0.00,SCT,,0.01,WeatherDisplay:10.37,2013-02-18 00:04:00,
2013-02-17 16:09:00,35.4,26.9,30.15,NW,313,2.0,2.0,71,0.00,SCT,,0.01,WeatherDisplay:10.37,2013-02-18 00:09:00,
2013-02-17 16:14:00,35.4,26.6,30.14,NW,319,3.5,3.5,70,0.00,SCT,,0.01,WeatherDisplay:10.37,2013-02-18 00:14:00,
2013-02-17 16:19:00,35.3,26.5,30.15,NW,323,3.5,3.5,70,0.00,SCT,,0.01,WeatherDisplay:10.37,2013-02-18 00:19:00,
2013-02-17 16:24:00,35.3,26.8,30.15,NNW,330,3.5,3.5,71,0.00,SCT,,0.01,WeatherDisplay:10.37,2013-02-18 00:24:00,
2013-02-17 16:29:00,35.1,26.3,30.15,NNW,330,0.0,0.0,70,0.00,SCT,,0.01,WeatherDisplay:10.37,2013-02-18 00:29:00,
2013-02-17 16:34:00,35.0,25.9,30.15,NNW,330,2.3,2.3,69,0.00,SCT,,0.01,WeatherDisplay:10.37,2013-02-18 00:34:00,
2013-02-17 16:39:00,34.9,25.8,30.15,NNW,330,2.3,2.3,69,0.00,SCT,,0.01,WeatherDisplay:10.37,2013-02-18 00:39:00,
2013-02-17 16:44:00,34.7,25.6,30.14,NW,323,3.5,3.5,69,0.00,SCT,,0.01,WeatherDisplay:10.37,2013-02-18 00:44:00,
2013-02-17 16:49:00,34.6,25.8,30.15,NW,323,0.0,0.0,70,0.00,SCT,,0.01,WeatherDisplay:10.37,2013-02-18 00:49:00,
2013-02-17 16:54:00,34.4,25.6,30.15,NW,304,3.5,3.5,70,0.00,SCT,,0.01,WeatherDisplay:10.37,2013-02-18 00:54:00,
2013-02-17 16:59:00,34.4,25.3,30.16,NW,319,3.5,3.5,69,0.00,SCT,,0.01,WeatherDisplay:10.37,2013-02-18 00:59:00,
2013-02-17 17:04:00,34.4,25.6,30.16,WNW,296,3.5,3.5,70,0.00,CLR,,0.01,WeatherDisplay:10.37,2013-02-18 01:04:00,
2013-02-17 17:09:00,34.2,25.8,30.16,NW,324,2.3,2.3,71,0.00,CLR,,0.01,WeatherDisplay:10.37,2013-02-18 01:09:00,
2013-02-17 17:14:00,34.1,25.7,30.16,NW,323,1.1,1.1,71,0.00,CLR,,0.01,WeatherDisplay:10.37,2013-02-18 01:14:00,
2013-02-17 17:19:00,33.9,25.5,30.16,NW,323,1.0,1.0,71,0.00,CLR,,0.01,WeatherDisplay:10.37,2013-02-18 01:19:00,
2013-02-17 17:24:00,33.8,25.7,30.16,NW,323,0.0,0.0,72,0.00,CLR,,0.01,WeatherDisplay:10.37,2013-02-18 01:24:00,
2013-02-17 17:29:00,33.7,25.6,30.16,NW,323,0.0,0.0,72,0.00,CLR,,0.01,WeatherDisplay:10.37,2013-02-18 01:29:00,
2013-02-17 17:34:00,33.5,25.8,30.16,NW,323,1.1,1.1,73,0.00,CLR,,0.01,WeatherDisplay:10.37,2013-02-18 01:34:00,
2013-02-17 17:39:00,33.4,25.7,30.17,NW,323,0.0,0.0,73,0.00,CLR,,0.01,WeatherDisplay:10.37,2013-02-18 01:39:00,
2013-02-17 17:44:00,33.2,25.8,30.16,NW,323,1.1,0.0,74,0.00,CLR,,0.01,WeatherDisplay:10.37,2013-02-18 01:44:00,
2013-02-17 17:49:00,33.0,25.6,30.16,NW,323,1.1,1.1,74,0.00,CLR,,0.01,WeatherDisplay:10.37,2013-02-18 01:49:00,
2013-02-17 17:54:00,32.9,25.5,30.16,NW,323,0.0,0.0,74,0.00,CLR,,0.01,WeatherDisplay:10.37,2013-02-18 01:54:00,
2013-02-17 17:59:00,32.8,25.4,30.16,NW,323,1.1,0.0,74,0.00,CLR,,0.01,WeatherDisplay:10.37,2013-02-18 01:59:00,
2013-02-17 18:04:00,32.7,25.6,30.17,NW,323,0.0,0.0,75,0.00,OVC,,0.01,WeatherDisplay:10.37,2013-02-18 02:04:00,
2013-02-17 18:09:00,32.6,25.6,30.17,NW,323,0.0,0.0,75,0.00,OVC,,0.01,WeatherDisplay:10.37,2013-02-18 02:09:00,
2013-02-17 18:14:00,32.5,25.5,30.16,NW,323,0.0,0.0,75,0.00,OVC,,0.01,WeatherDisplay:10.37,2013-02-18 02:14:00,
2013-02-17 18:19:00,32.4,25.4,30.17,NW,323,0.0,0.0,75,0.00,OVC,,0.01,WeatherDisplay:10.37,2013-02-18 02:19:00,
2013-02-17 18:24:00,32.3,25.3,30.17,NW,323,0.0,0.0,75,0.00,OVC,,0.01,WeatherDisplay:10.37,2013-02-18 02:24:00,
2013-02-17 18:29:00,32.2,25.2,30.17,NW,323,0.0,0.0,75,0.00,OVC,,0.01,WeatherDisplay:10.37,2013-02-18 02:29:00,
2013-02-17 18:34:00,32.1,25.1,30.17,NW,323,0.0,0.0,75,0.00,OVC,,0.01,WeatherDisplay:10.37,2013-02-18 02:34:00,
2013-02-17 18:39:00,31.7,25.3,30.17,NW,323,5.8,5.8,77,0.00,OVC,,0.01,WeatherDisplay:10.37,2013-02-18 02:39:00,
2013-02-17 18:44:00,31.7,25.6,30.17,SSE,150,5.8,5.8,78,0.00,OVC,,0.01,WeatherDisplay:10.37,2013-02-18 02:44:00,
2013-02-17 18:49:00,31.8,25.7,30.17,SE,134,5.8,5.8,78,0.00,OVC,,0.01,WeatherDisplay:10.37,2013-02-18 02:49:00,
2013-02-17 18:54:00,31.6,25.8,30.17,SE,128,4.6,4.6,79,0.00,OVC,,0.01,WeatherDisplay:10.37,2013-02-18 02:54:00,
2013-02-17 18:59:00,31.3,25.5,30.17,SE,142,6.0,6.0,79,0.00,OVC,,0.01,WeatherDisplay:10.37,2013-02-18 02:59:00,
2013-02-17 19:04:00,32.2,25.2,30.17,SE,143,1.1,1.1,75,0.00,OVC,,0.01,WeatherDisplay:10.37,2013-02-18 03:04:00,
2013-02-17 19:09:00,32.3,25.3,30.17,SE,142,0.0,0.0,75,0.00,OVC,,0.01,WeatherDisplay:10.37,2013-02-18 03:09:00,
2013-02-17 19:14:00,32.2,25.2,30.17,SE,124,2.3,2.3,75,0.00,OVC,,0.01,WeatherDisplay:10.37,2013-02-18 03:14:00,
2013-02-17 19:19:00,32.3,24.9,30.17,SE,124,2.0,2.0,74,0.00,OVC,,0.01,WeatherDisplay:10.37,2013-02-18 03:19:00,
2013-02-17 19:25:00,32.1,25.1,30.17,ESE,123,2.0,2.0,75,0.00,OVC,,0.01,WeatherDisplay:10.37,2013-02-18 03:25:00,
2013-02-17 19:30:00,31.8,25.4,30.17,SE,124,3.5,3.5,77,0.00,OVC,,0.01,WeatherDisplay:10.37,2013-02-18 03:30:00,
2013-02-17 19:35:00,31.6,25.5,30.17,SE,127,3.5,3.5,78,0.00,OVC,,0.01,WeatherDisplay:10.37,2013-02-18 03:35:00,
2013-02-17 19:40:00,31.7,25.6,30.17,SE,126,3.5,3.5,78,0.00,OVC,,0.01,WeatherDisplay:10.37,2013-02-18 03:40:00,
2013-02-17 19:45:00,31.5,25.7,30.17,SE,128,2.3,2.3,79,0.00,OVC,,0.01,WeatherDisplay:10.37,2013-02-18 03:45:00,
2013-02-17 19:50:00,31.5,25.7,30.17,SE,128,3.5,3.5,79,0.00,OVC,,0.01,WeatherDisplay:10.37,2013-02-18 03:50:00,
2013-02-17 19:55:00,31.4,25.9,30.17,SE,140,3.5,3.5,80,0.00,OVC,,0.01,WeatherDisplay:10.37,2013-02-18 03:55:00,
2013-02-17 20:00:00,31.0,25.9,30.17,SE,140,3.5,3.5,81,0.00,OVC,,0.01,WeatherDisplay:10.37,2013-02-18 04:00:00,
2013-02-17 20:05:00,30.8,26.0,30.17,SE,140,3.5,3.5,82,0.00,BKN,,0.01,WeatherDisplay:10.37,2013-02-18 04:05:00,
2013-02-17 20:10:00,30.8,26.0,30.18,SE,140,2.3,2.3,82,0.00,BKN,,0.01,WeatherDisplay:10.37,2013-02-18 04:10:00,
2013-02-17 20:15:00,30.7,26.1,30.17,SE,140,2.3,2.3,83,0.00,BKN,,0.01,WeatherDisplay:10.37,2013-02-18 04:15:00,
2013-02-17 20:20:00,30.6,26.1,30.18,SE,140,2.3,2.3,83,0.00,BKN,,0.01,WeatherDisplay:10.37,2013-02-18 04:20:00,
2013-02-17 20:25:00,30.6,26.1,30.18,SE,140,0.0,0.0,83,0.00,BKN,,0.01,WeatherDisplay:10.37,2013-02-18 04:25:00,
2013-02-17 20:30:00,30.4,25.9,30.17,SE,140,0.0,0.0,83,0.00,BKN,,0.01,WeatherDisplay:10.37,2013-02-18 04:30:00,
2013-02-17 20:35:00,30.3,25.8,30.17,SE,140,0.0,0.0,83,0.00,BKN,,0.01,WeatherDisplay:10.37,2013-02-18 04:35:00,
2013-02-17 20:40:00,30.3,25.8,30.18,SE,140,4.0,4.0,83,0.00,BKN,,0.01,WeatherDisplay:10.37,2013-02-18 04:40:00,
2013-02-17 20:45:00,30.1,25.6,30.18,SSE,164,3.5,3.5,83,0.00,BKN,,0.01,WeatherDisplay:10.37,2013-02-18 04:45:00,
2013-02-17 20:50:00,30.3,25.5,30.18,SSE,165,3.5,3.5,82,0.00,BKN,,0.01,WeatherDisplay:10.37,2013-02-18 04:50:00,
2013-02-17 20:55:00,30.0,25.2,30.17,SSE,164,2.3,2.3,82,0.00,BKN,,0.01,WeatherDisplay:10.37,2013-02-18 04:55:00,
2013-02-17 21:00:00,29.5,24.7,30.17,SSE,165,3.5,3.5,82,0.00,BKN,,0.01,WeatherDisplay:10.37,2013-02-18 05:00:00,
2013-02-17 21:05:00,29.0,24.5,30.17,SSE,165,3.5,3.5,83,0.00,BKN,,0.01,WeatherDisplay:10.37,2013-02-18 05:05:00,
2013-02-17 21:10:00,28.7,24.5,30.17,SSE,165,3.5,3.5,84,0.00,BKN,,0.01,WeatherDisplay:10.37,2013-02-18 05:10:00,
2013-02-17 21:15:00,28.6,24.1,30.18,SSE,165,5.0,5.0,83,0.00,BKN,,0.01,WeatherDisplay:10.37,2013-02-18 05:15:00,
2013-02-17 21:20:00,28.8,24.3,30.18,South,187,8.1,8.1,83,0.00,BKN,,0.01,WeatherDisplay:10.37,2013-02-18 05:20:00,
2013-02-17 21:25:00,28.7,23.9,30.18,South,188,4.6,4.6,82,0.00,BKN,,0.01,WeatherDisplay:10.37,2013-02-18 05:25:00,
2013-02-17 21:30:00,28.5,23.7,30.18,South,188,4.0,4.0,82,0.00,BKN,,0.01,WeatherDisplay:10.37,2013-02-18 05:30:00,
2013-02-17 21:35:00,28.2,23.4,30.18,South,188,4.0,4.0,82,0.00,BKN,,0.01,WeatherDisplay:10.37,2013-02-18 05:35:00,
2013-02-17 21:40:00,28.0,23.5,30.18,South,189,3.5,3.5,83,0.00,BKN,,0.01,WeatherDisplay:10.37,2013-02-18 05:40:00,
2013-02-17 21:45:00,27.6,23.1,30.19,South,190,3.5,3.5,83,0.00,BKN,,0.01,WeatherDisplay:10.37,2013-02-18 05:45:00,
2013-02-17 21:50:00,27.4,23.2,30.19,South,190,3.5,3.5,84,0.00,BKN,,0.01,WeatherDisplay:10.37,2013-02-18 05:50:00,
2013-02-17 21:55:00,27.7,23.5,30.18,South,190,3.5,3.5,84,0.00,BKN,,0.01,WeatherDisplay:10.37,2013-02-18 05:55:00,
2013-02-17 22:00:00,28.2,23.7,30.17,South,190,3.5,3.5,83,0.00,BKN,,0.01,WeatherDisplay:10.37,2013-02-18 06:00:00,
2013-02-17 22:05:00,28.3,23.8,30.17,South,190,2.3,2.3,83,0.00,CLR,,0.01,WeatherDisplay:10.37,2013-02-18 06:05:00,
2013-02-17 22:10:00,28.0,23.5,30.17,South,191,4.6,4.6,83,0.00,CLR,,0.01,WeatherDisplay:10.37,2013-02-18 06:10:00,
2013-02-17 22:15:00,28.1,23.9,30.17,South,187,5.8,5.8,84,0.00,CLR,,0.01,WeatherDisplay:10.37,2013-02-18 06:15:00,
2013-02-17 22:20:00,28.1,23.9,30.17,SSW,202,8.1,8.1,84,0.00,CLR,,0.01,WeatherDisplay:10.37,2013-02-18 06:20:00,
2013-02-17 22:25:00,28.3,24.4,30.17,South,173,5.8,5.8,85,0.00,CLR,,0.01,WeatherDisplay:10.37,2013-02-18 06:25:00,
2013-02-17 22:30:00,28.0,24.1,30.17,South,175,4.6,4.6,85,0.00,CLR,,0.01,WeatherDisplay:10.37,2013-02-18 06:30:00,
2013-02-17 22:35:00,27.4,23.2,30.18,South,178,2.3,2.3,84,0.00,CLR,,0.01,WeatherDisplay:10.37,2013-02-18 06:35:00,
2013-02-17 22:40:00,26.6,22.4,30.18,South,178,2.3,2.3,84,0.00,CLR,,0.01,WeatherDisplay:10.37,2013-02-18 06:40:00,
2013-02-17 22:45:00,25.9,22.0,30.18,South,178,2.3,2.3,85,0.00,CLR,,0.01,WeatherDisplay:10.37,2013-02-18 06:45:00,
2013-02-17 22:50:00,25.9,22.8,30.18,South,183,4.0,4.0,88,0.00,CLR,,0.01,WeatherDisplay:10.37,2013-02-18 06:50:00,
2013-02-17 22:55:00,26.6,23.5,30.18,SSW,209,4.6,4.6,88,0.00,CLR,,0.01,WeatherDisplay:10.37,2013-02-18 06:55:00,
2013-02-17 23:00:00,26.7,23.4,30.18,SSW,209,2.3,2.3,87,0.00,CLR,,0.01,WeatherDisplay:10.37,2013-02-18 07:00:00,
2013-02-17 23:05:00,26.6,23.3,30.18,SSW,209,3.5,3.5,87,0.00,CLR,,0.01,WeatherDisplay:10.37,2013-02-18 07:05:00,
2013-02-17 23:10:00,26.1,22.8,30.18,SSW,209,3.5,3.5,87,0.00,CLR,,0.01,WeatherDisplay:10.37,2013-02-18 07:10:00,
2013-02-17 23:15:00,25.8,22.7,30.18,SSW,207,3.5,3.5,88,0.00,CLR,,0.01,WeatherDisplay:10.37,2013-02-18 07:15:00,
2013-02-17 23:20:00,26.0,23.2,30.18,SSW,207,3.5,3.6,89,0.00,CLR,,0.01,WeatherDisplay:10.37,2013-02-18 07:20:00,
2013-02-17 23:25:00,26.2,23.1,30.18,SSW,207,3.5,3.5,88,0.00,CLR,,0.01,WeatherDisplay:10.37,2013-02-18 07:25:00,
2013-02-17 23:30:00,26.3,23.2,30.18,SSW,206,4.6,4.6,88,0.00,CLR,,0.01,WeatherDisplay:10.37,2013-02-18 07:30:00,
2013-02-17 23:35:00,26.1,23.0,30.18,SSW,206,2.3,2.3,88,0.00,CLR,,0.01,WeatherDisplay:10.37,2013-02-18 07:35:00,
2013-02-17 23:40:00,26.1,23.0,30.18,SSW,206,3.5,3.5,88,0.00,CLR,,0.01,WeatherDisplay:10.37,2013-02-18 07:40:00,
2013-02-17 23:45:00,25.6,22.5,30.18,SSW,206,4.6,4.6,88,0.00,CLR,,0.01,WeatherDisplay:10.37,2013-02-18 07:45:00,
2013-02-17 23:50:00,25.6,22.8,30.18,SSW,198,6.0,6.0,89,0.00,CLR,,0.01,WeatherDisplay:10.37,2013-02-18 07:50:00,
2013-02-17 23:55:00,24.9,21.8,30.18,SSW,198,4.0,4.1,88,0.00,CLR,,0.01,WeatherDisplay:10.37,2013-02-18 07:55:00,